sensor_id;sensor_type;location;lat;lon;timestamp;temperature;humidity
28484;DHT22;15704;48.834;8.736;2022-12-10T00:01:28;1.10;99.90
28484;DHT22;15704;48.834;8.736;2022-12-10T00:03:55;1.00;99.90
28484;DHT22;15704;48.834;8.736;2022-12-10T00:06:25;1.20;99.90
28484;DHT22;15704;48.834;8.736;2022-12-10T00:08:52;1.30;99.90
28484;DHT22;15704;48.834;8.736;2022-12-10T00:11:20;1.30;99.90
28484;DHT22;15704;48.834;8.736;2022-12-10T00:13:48;1.30;99.90
28484;DHT22;15704;48.834;8.736;2022-12-10T00:16:16;1.30;99.90
28484;DHT22;15704;48.834;8.736;2022-12-10T00:18:45;1.30;99.90
28484;DHT22;15704;48.834;8.736;2022-12-10T00:21:17;1.30;99.90
28484;DHT22;15704;48.834;8.736;2022-12-10T00:23:45;1.20;99.90
28484;DHT22;15704;48.834;8.736;2022-12-10T00:26:14;1.20;99.90
28484;DHT22;15704;48.834;8.736;2022-12-10T00:28:42;1.20;99.90
28484;DHT22;15704;48.834;8.736;2022-12-10T00:31:18;1.20;99.90
28484;DHT22;15704;48.834;8.736;2022-12-10T00:33:45;1.10;99.90
28484;DHT22;15704;48.834;8.736;2022-12-10T00:36:21;1.00;99.90
28484;DHT22;15704;48.834;8.736;2022-12-10T00:38:50;1.00;99.90
28484;DHT22;15704;48.834;8.736;2022-12-10T00:41:17;0.90;99.90
28484;DHT22;15704;48.834;8.736;2022-12-10T00:43:45;1.10;99.90
28484;DHT22;15704;48.834;8.736;2022-12-10T00:46:13;1.10;99.90
28484;DHT22;15704;48.834;8.736;2022-12-10T00:48:41;1.00;99.90
28484;DHT22;15704;48.834;8.736;2022-12-10T00:51:10;0.90;99.90
28484;DHT22;15704;48.834;8.736;2022-12-10T00:53:39;1.00;99.90
28484;DHT22;15704;48.834;8.736;2022-12-10T00:56:08;1.10;99.90
28484;DHT22;15704;48.834;8.736;2022-12-10T00:58:36;1.00;99.90
28484;DHT22;15704;48.834;8.736;2022-12-10T01:04:03;1.10;99.90
28484;DHT22;15704;48.834;8.736;2022-12-10T01:06:33;0.90;99.90
28484;DHT22;15704;48.834;8.736;2022-12-10T01:09:02;0.90;99.90
28484;DHT22;15704;48.834;8.736;2022-12-10T01:11:35;0.90;99.90
28484;DHT22;15704;48.834;8.736;2022-12-10T01:14:04;0.90;99.90
28484;DHT22;15704;48.834;8.736;2022-12-10T01:16:31;0.90;99.90
28484;DHT22;15704;48.834;8.736;2022-12-10T01:18:58;0.80;99.90
28484;DHT22;15704;48.834;8.736;2022-12-10T01:21:27;0.70;99.90
28484;DHT22;15704;48.834;8.736;2022-12-10T01:23:55;0.70;99.90
28484;DHT22;15704;48.834;8.736;2022-12-10T01:26:25;0.70;99.90
28484;DHT22;15704;48.834;8.736;2022-12-10T01:28:54;0.90;99.90
28484;DHT22;15704;48.834;8.736;2022-12-10T01:31:23;0.90;99.90
28484;DHT22;15704;48.834;8.736;2022-12-10T01:33:51;0.90;99.90
28484;DHT22;15704;48.834;8.736;2022-12-10T01:36:20;1.10;99.90
28484;DHT22;15704;48.834;8.736;2022-12-10T01:38:48;1.20;99.90
28484;DHT22;15704;48.834;8.736;2022-12-10T01:41:24;1.10;99.90
28484;DHT22;15704;48.834;8.736;2022-12-10T01:46:52;1.10;99.90
28484;DHT22;15704;48.834;8.736;2022-12-10T01:49:40;1.10;99.90
28484;DHT22;15704;48.834;8.736;2022-12-10T01:52:10;1.10;99.90
28484;DHT22;15704;48.834;8.736;2022-12-10T01:54:41;1.10;99.90
28484;DHT22;15704;48.834;8.736;2022-12-10T01:57:15;1.00;99.90
28484;DHT22;15704;48.834;8.736;2022-12-10T01:59:44;1.00;99.90
28484;DHT22;15704;48.834;8.736;2022-12-10T02:08:07;0.90;99.90
28484;DHT22;15704;48.834;8.736;2022-12-10T02:13:45;1.10;99.90
28484;DHT22;15704;48.834;8.736;2022-12-10T02:16:21;1.10;99.90
28484;DHT22;15704;48.834;8.736;2022-12-10T02:21:53;1.30;99.90
28484;DHT22;15704;48.834;8.736;2022-12-10T02:24:27;1.30;99.90
28484;DHT22;15704;48.834;8.736;2022-12-10T02:27:03;1.10;99.90
28484;DHT22;15704;48.834;8.736;2022-12-10T02:29:31;1.00;99.90
28484;DHT22;15704;48.834;8.736;2022-12-10T02:34:32;1.10;99.90
28484;DHT22;15704;48.834;8.736;2022-12-10T02:37:04;1.00;99.90
28484;DHT22;15704;48.834;8.736;2022-12-10T02:39:38;0.80;99.90
28484;DHT22;15704;48.834;8.736;2022-12-10T02:42:05;0.60;99.90
28484;DHT22;15704;48.834;8.736;2022-12-10T02:44:36;0.60;99.90
28484;DHT22;15704;48.834;8.736;2022-12-10T02:47:05;0.70;99.90
28484;DHT22;15704;48.834;8.736;2022-12-10T02:49:34;0.50;99.90
28484;DHT22;15704;48.834;8.736;2022-12-10T02:52:16;0.60;99.90
28484;DHT22;15704;48.834;8.736;2022-12-10T02:54:46;0.80;99.90
28484;DHT22;15704;48.834;8.736;2022-12-10T02:57:34;0.80;99.90
28484;DHT22;15704;48.834;8.736;2022-12-10T03:08:11;0.90;99.90
28484;DHT22;15704;48.834;8.736;2022-12-10T03:13:40;1.10;99.90
28484;DHT22;15704;48.834;8.736;2022-12-10T03:16:09;1.10;99.90
28484;DHT22;15704;48.834;8.736;2022-12-10T03:18:37;1.20;99.90
28484;DHT22;15704;48.834;8.736;2022-12-10T03:21:06;1.20;99.90
28484;DHT22;15704;48.834;8.736;2022-12-10T03:23:35;1.20;99.90
28484;DHT22;15704;48.834;8.736;2022-12-10T03:26:04;1.00;99.90
28484;DHT22;15704;48.834;8.736;2022-12-10T03:28:40;0.80;99.90
28484;DHT22;15704;48.834;8.736;2022-12-10T03:31:10;0.70;99.90
28484;DHT22;15704;48.834;8.736;2022-12-10T03:33:39;0.60;99.90
28484;DHT22;15704;48.834;8.736;2022-12-10T03:36:07;0.70;99.90
28484;DHT22;15704;48.834;8.736;2022-12-10T03:38:35;0.70;99.90
28484;DHT22;15704;48.834;8.736;2022-12-10T03:41:03;0.70;99.90
28484;DHT22;15704;48.834;8.736;2022-12-10T03:43:30;0.80;99.90
28484;DHT22;15704;48.834;8.736;2022-12-10T03:45:56;0.90;99.90
28484;DHT22;15704;48.834;8.736;2022-12-10T03:48:23;0.90;99.90
28484;DHT22;15704;48.834;8.736;2022-12-10T03:50:50;1.00;99.90
28484;DHT22;15704;48.834;8.736;2022-12-10T03:53:16;1.10;99.90
28484;DHT22;15704;48.834;8.736;2022-12-10T03:55:43;1.10;99.90
28484;DHT22;15704;48.834;8.736;2022-12-10T03:58:10;0.90;99.90
28484;DHT22;15704;48.834;8.736;2022-12-10T04:00:42;0.90;99.90
28484;DHT22;15704;48.834;8.736;2022-12-10T04:03:09;0.80;99.90
28484;DHT22;15704;48.834;8.736;2022-12-10T04:05:36;0.90;99.90
28484;DHT22;15704;48.834;8.736;2022-12-10T04:08:03;0.80;99.90
28484;DHT22;15704;48.834;8.736;2022-12-10T04:10:30;0.80;99.90
28484;DHT22;15704;48.834;8.736;2022-12-10T04:13:00;0.90;99.90
28484;DHT22;15704;48.834;8.736;2022-12-10T04:15:46;0.90;99.90
28484;DHT22;15704;48.834;8.736;2022-12-10T04:18:31;0.90;99.90
28484;DHT22;15704;48.834;8.736;2022-12-10T04:20:58;0.80;99.90
28484;DHT22;15704;48.834;8.736;2022-12-10T04:23:43;0.80;99.90
28484;DHT22;15704;48.834;8.736;2022-12-10T04:26:29;0.80;99.90
28484;DHT22;15704;48.834;8.736;2022-12-10T04:29:14;0.80;99.90
28484;DHT22;15704;48.834;8.736;2022-12-10T04:31:41;0.90;99.90
28484;DHT22;15704;48.834;8.736;2022-12-10T04:34:07;1.00;99.90
28484;DHT22;15704;48.834;8.736;2022-12-10T04:36:34;0.90;99.90
28484;DHT22;15704;48.834;8.736;2022-12-10T04:39:01;0.80;99.90
28484;DHT22;15704;48.834;8.736;2022-12-10T04:41:28;0.70;99.90
28484;DHT22;15704;48.834;8.736;2022-12-10T04:43:54;0.70;99.90
28484;DHT22;15704;48.834;8.736;2022-12-10T04:46:21;0.70;99.90
28484;DHT22;15704;48.834;8.736;2022-12-10T04:48:48;0.70;99.90
28484;DHT22;15704;48.834;8.736;2022-12-10T04:51:14;0.60;99.90
28484;DHT22;15704;48.834;8.736;2022-12-10T04:53:41;0.70;99.90
28484;DHT22;15704;48.834;8.736;2022-12-10T04:56:08;0.60;99.90
28484;DHT22;15704;48.834;8.736;2022-12-10T04:58:35;0.70;99.90
28484;DHT22;15704;48.834;8.736;2022-12-10T05:01:07;0.60;99.90
28484;DHT22;15704;48.834;8.736;2022-12-10T05:03:34;0.60;99.90
28484;DHT22;15704;48.834;8.736;2022-12-10T05:06:10;0.60;99.90
28484;DHT22;15704;48.834;8.736;2022-12-10T05:08:38;0.60;99.90
28484;DHT22;15704;48.834;8.736;2022-12-10T05:11:14;0.60;99.90
28484;DHT22;15704;48.834;8.736;2022-12-10T05:13:42;0.50;99.90
28484;DHT22;15704;48.834;8.736;2022-12-10T05:16:11;0.60;99.90
28484;DHT22;15704;48.834;8.736;2022-12-10T05:18:38;0.60;99.90
28484;DHT22;15704;48.834;8.736;2022-12-10T05:21:07;0.60;99.90
28484;DHT22;15704;48.834;8.736;2022-12-10T05:23:39;0.50;99.90
28484;DHT22;15704;48.834;8.736;2022-12-10T05:26:08;0.60;99.90
28484;DHT22;15704;48.834;8.736;2022-12-10T05:28:55;0.60;99.90
28484;DHT22;15704;48.834;8.736;2022-12-10T05:31:27;0.50;99.90
28484;DHT22;15704;48.834;8.736;2022-12-10T05:33:55;0.50;99.90
28484;DHT22;15704;48.834;8.736;2022-12-10T05:36:25;0.40;99.90
28484;DHT22;15704;48.834;8.736;2022-12-10T05:38:53;0.40;99.90
28484;DHT22;15704;48.834;8.736;2022-12-10T05:41:23;0.50;99.90
28484;DHT22;15704;48.834;8.736;2022-12-10T05:43:52;0.50;99.90
28484;DHT22;15704;48.834;8.736;2022-12-10T05:46:22;0.40;99.90
28484;DHT22;15704;48.834;8.736;2022-12-10T05:48:50;0.30;99.90
28484;DHT22;15704;48.834;8.736;2022-12-10T05:51:20;0.20;99.90
28484;DHT22;15704;48.834;8.736;2022-12-10T05:53:48;0.20;99.90
28484;DHT22;15704;48.834;8.736;2022-12-10T05:56:16;0.30;99.90
28484;DHT22;15704;48.834;8.736;2022-12-10T05:58:46;0.30;99.90
28484;DHT22;15704;48.834;8.736;2022-12-10T06:01:15;0.30;99.90
28484;DHT22;15704;48.834;8.736;2022-12-10T06:03:42;0.20;99.90
28484;DHT22;15704;48.834;8.736;2022-12-10T06:06:10;0.20;99.90
28484;DHT22;15704;48.834;8.736;2022-12-10T06:08:37;0.20;99.90
28484;DHT22;15704;48.834;8.736;2022-12-10T06:11:07;0.20;99.90
28484;DHT22;15704;48.834;8.736;2022-12-10T06:13:35;0.30;99.90
28484;DHT22;15704;48.834;8.736;2022-12-10T06:16:06;0.20;99.90
28484;DHT22;15704;48.834;8.736;2022-12-10T06:18:33;0.30;99.90
28484;DHT22;15704;48.834;8.736;2022-12-10T06:21:03;0.20;99.90
28484;DHT22;15704;48.834;8.736;2022-12-10T06:23:30;0.30;99.90
28484;DHT22;15704;48.834;8.736;2022-12-10T06:25:57;0.20;99.90
28484;DHT22;15704;48.834;8.736;2022-12-10T06:28:24;0.30;99.90
28484;DHT22;15704;48.834;8.736;2022-12-10T06:30:50;0.20;99.90
28484;DHT22;15704;48.834;8.736;2022-12-10T06:33:17;0.10;99.90
28484;DHT22;15704;48.834;8.736;2022-12-10T06:35:44;0.20;99.90
28484;DHT22;15704;48.834;8.736;2022-12-10T06:38:10;0.30;99.90
28484;DHT22;15704;48.834;8.736;2022-12-10T06:40:39;0.30;99.90
28484;DHT22;15704;48.834;8.736;2022-12-10T06:43:06;0.40;99.90
28484;DHT22;15704;48.834;8.736;2022-12-10T06:45:33;0.40;99.90
28484;DHT22;15704;48.834;8.736;2022-12-10T06:48:00;0.30;99.90
28484;DHT22;15704;48.834;8.736;2022-12-10T06:50:26;0.40;99.90
28484;DHT22;15704;48.834;8.736;2022-12-10T06:52:53;0.40;99.90
28484;DHT22;15704;48.834;8.736;2022-12-10T06:55:20;0.50;99.90
28484;DHT22;15704;48.834;8.736;2022-12-10T06:57:50;0.50;99.90
28484;DHT22;15704;48.834;8.736;2022-12-10T07:00:17;0.40;99.90
28484;DHT22;15704;48.834;8.736;2022-12-10T07:02:48;0.40;99.90
28484;DHT22;15704;48.834;8.736;2022-12-10T07:05:15;0.40;99.90
28484;DHT22;15704;48.834;8.736;2022-12-10T07:07:42;0.30;99.90
28484;DHT22;15704;48.834;8.736;2022-12-10T07:10:09;0.20;99.90
28484;DHT22;15704;48.834;8.736;2022-12-10T07:12:36;0.30;99.90
28484;DHT22;15704;48.834;8.736;2022-12-10T07:15:03;0.30;99.90
28484;DHT22;15704;48.834;8.736;2022-12-10T07:17:30;0.20;99.90
28484;DHT22;15704;48.834;8.736;2022-12-10T07:19:57;0.20;99.90
28484;DHT22;15704;48.834;8.736;2022-12-10T07:22:24;0.30;99.90
28484;DHT22;15704;48.834;8.736;2022-12-10T07:24:51;0.30;99.90
28484;DHT22;15704;48.834;8.736;2022-12-10T07:27:18;0.30;99.90
28484;DHT22;15704;48.834;8.736;2022-12-10T07:29:44;0.30;99.90
28484;DHT22;15704;48.834;8.736;2022-12-10T07:32:11;0.30;99.90
28484;DHT22;15704;48.834;8.736;2022-12-10T07:34:38;0.40;99.90
28484;DHT22;15704;48.834;8.736;2022-12-10T07:37:05;0.40;99.90
28484;DHT22;15704;48.834;8.736;2022-12-10T07:39:32;0.40;99.90
28484;DHT22;15704;48.834;8.736;2022-12-10T07:41:58;0.40;99.90
28484;DHT22;15704;48.834;8.736;2022-12-10T07:44:25;0.30;99.90
28484;DHT22;15704;48.834;8.736;2022-12-10T07:46:53;0.40;99.90
28484;DHT22;15704;48.834;8.736;2022-12-10T07:49:20;0.30;99.90
28484;DHT22;15704;48.834;8.736;2022-12-10T07:51:50;0.40;99.90
28484;DHT22;15704;48.834;8.736;2022-12-10T07:54:18;0.40;99.90
28484;DHT22;15704;48.834;8.736;2022-12-10T07:56:45;0.40;99.90
28484;DHT22;15704;48.834;8.736;2022-12-10T07:59:11;0.40;99.90
28484;DHT22;15704;48.834;8.736;2022-12-10T08:01:38;0.50;99.90
28484;DHT22;15704;48.834;8.736;2022-12-10T08:04:05;0.40;99.90
28484;DHT22;15704;48.834;8.736;2022-12-10T08:06:32;0.40;99.90
28484;DHT22;15704;48.834;8.736;2022-12-10T08:08:59;0.40;99.90
28484;DHT22;15704;48.834;8.736;2022-12-10T08:11:26;0.30;99.90
28484;DHT22;15704;48.834;8.736;2022-12-10T08:13:53;0.40;99.90
28484;DHT22;15704;48.834;8.736;2022-12-10T08:16:25;0.50;99.90
28484;DHT22;15704;48.834;8.736;2022-12-10T08:18:53;0.40;99.90
28484;DHT22;15704;48.834;8.736;2022-12-10T08:21:23;0.40;99.90
28484;DHT22;15704;48.834;8.736;2022-12-10T08:23:50;0.40;99.90
28484;DHT22;15704;48.834;8.736;2022-12-10T08:26:19;0.20;99.90
28484;DHT22;15704;48.834;8.736;2022-12-10T08:28:47;0.40;99.90
28484;DHT22;15704;48.834;8.736;2022-12-10T08:31:16;0.30;99.90
28484;DHT22;15704;48.834;8.736;2022-12-10T08:33:43;0.30;99.90
28484;DHT22;15704;48.834;8.736;2022-12-10T08:36:14;0.20;99.90
28484;DHT22;15704;48.834;8.736;2022-12-10T08:38:42;0.40;99.90
28484;DHT22;15704;48.834;8.736;2022-12-10T08:41:14;0.40;99.90
28484;DHT22;15704;48.834;8.736;2022-12-10T08:43:42;0.50;99.90
28484;DHT22;15704;48.834;8.736;2022-12-10T08:46:10;0.50;99.90
28484;DHT22;15704;48.834;8.736;2022-12-10T08:48:37;0.50;99.90
28484;DHT22;15704;48.834;8.736;2022-12-10T08:51:05;0.50;99.90
28484;DHT22;15704;48.834;8.736;2022-12-10T08:53:33;0.60;99.90
28484;DHT22;15704;48.834;8.736;2022-12-10T08:56:00;0.50;99.90
28484;DHT22;15704;48.834;8.736;2022-12-10T08:58:27;0.40;99.90
28484;DHT22;15704;48.834;8.736;2022-12-10T09:00:54;0.50;99.90
28484;DHT22;15704;48.834;8.736;2022-12-10T09:03:20;0.60;99.90
28484;DHT22;15704;48.834;8.736;2022-12-10T09:05:47;0.60;99.90
28484;DHT22;15704;48.834;8.736;2022-12-10T09:08:14;0.50;99.90
28484;DHT22;15704;48.834;8.736;2022-12-10T09:10:41;0.50;99.90
28484;DHT22;15704;48.834;8.736;2022-12-10T09:13:08;0.50;99.90
28484;DHT22;15704;48.834;8.736;2022-12-10T09:15:35;0.70;99.90
28484;DHT22;15704;48.834;8.736;2022-12-10T09:18:02;0.70;99.90
28484;DHT22;15704;48.834;8.736;2022-12-10T09:20:29;0.70;99.90
28484;DHT22;15704;48.834;8.736;2022-12-10T09:22:56;0.70;99.90
28484;DHT22;15704;48.834;8.736;2022-12-10T09:25:22;0.60;99.90
28484;DHT22;15704;48.834;8.736;2022-12-10T09:27:49;0.60;99.90
28484;DHT22;15704;48.834;8.736;2022-12-10T09:30:16;0.50;99.90
28484;DHT22;15704;48.834;8.736;2022-12-10T09:32:44;0.60;99.90
28484;DHT22;15704;48.834;8.736;2022-12-10T09:35:11;0.60;99.90
28484;DHT22;15704;48.834;8.736;2022-12-10T09:37:37;0.70;99.90
28484;DHT22;15704;48.834;8.736;2022-12-10T09:40:05;0.50;99.90
28484;DHT22;15704;48.834;8.736;2022-12-10T09:42:55;0.70;99.90
28484;DHT22;15704;48.834;8.736;2022-12-10T09:45:40;0.60;99.90
28484;DHT22;15704;48.834;8.736;2022-12-10T09:48:23;0.50;99.90
28484;DHT22;15704;48.834;8.736;2022-12-10T09:51:00;0.60;99.90
28484;DHT22;15704;48.834;8.736;2022-12-10T09:53:29;0.70;99.90
28484;DHT22;15704;48.834;8.736;2022-12-10T09:55:57;0.60;99.90
28484;DHT22;15704;48.834;8.736;2022-12-10T09:58:26;0.70;99.90
28484;DHT22;15704;48.834;8.736;2022-12-10T10:01:02;0.70;99.90
28484;DHT22;15704;48.834;8.736;2022-12-10T10:03:37;0.80;99.90
28484;DHT22;15704;48.834;8.736;2022-12-10T10:06:04;1.00;99.90
28484;DHT22;15704;48.834;8.736;2022-12-10T10:08:44;0.90;99.90
28484;DHT22;15704;48.834;8.736;2022-12-10T10:11:26;0.90;99.90
28484;DHT22;15704;48.834;8.736;2022-12-10T10:14:01;1.00;99.90
28484;DHT22;15704;48.834;8.736;2022-12-10T10:16:37;1.00;99.90
28484;DHT22;15704;48.834;8.736;2022-12-10T10:19:15;0.90;99.90
28484;DHT22;15704;48.834;8.736;2022-12-10T10:21:47;0.90;99.90
28484;DHT22;15704;48.834;8.736;2022-12-10T10:24:17;0.80;99.90
28484;DHT22;15704;48.834;8.736;2022-12-10T10:26:45;0.70;99.90
28484;DHT22;15704;48.834;8.736;2022-12-10T10:29:16;0.80;99.90
28484;DHT22;15704;48.834;8.736;2022-12-10T10:31:44;0.80;99.90
28484;DHT22;15704;48.834;8.736;2022-12-10T10:34:20;0.70;99.90
28484;DHT22;15704;48.834;8.736;2022-12-10T10:36:47;0.80;99.90
28484;DHT22;15704;48.834;8.736;2022-12-10T10:39:32;0.90;99.90
28484;DHT22;15704;48.834;8.736;2022-12-10T10:42:09;0.80;99.90
28484;DHT22;15704;48.834;8.736;2022-12-10T10:44:38;0.90;99.90
28484;DHT22;15704;48.834;8.736;2022-12-10T10:47:29;1.00;99.90
28484;DHT22;15704;48.834;8.736;2022-12-10T10:50:03;0.90;99.90
28484;DHT22;15704;48.834;8.736;2022-12-10T10:52:36;0.90;99.90
28484;DHT22;15704;48.834;8.736;2022-12-10T10:55:04;1.00;99.90
28484;DHT22;15704;48.834;8.736;2022-12-10T10:57:35;1.10;99.90
28484;DHT22;15704;48.834;8.736;2022-12-10T11:00:20;1.20;99.90
28484;DHT22;15704;48.834;8.736;2022-12-10T11:02:51;1.20;99.90
28484;DHT22;15704;48.834;8.736;2022-12-10T11:05:24;1.10;99.90
28484;DHT22;15704;48.834;8.736;2022-12-10T11:08:06;0.80;99.90
28484;DHT22;15704;48.834;8.736;2022-12-10T11:10:48;0.80;99.90
28484;DHT22;15704;48.834;8.736;2022-12-10T11:13:25;0.90;99.90
28484;DHT22;15704;48.834;8.736;2022-12-10T11:16:00;0.90;99.90
28484;DHT22;15704;48.834;8.736;2022-12-10T11:18:32;1.00;99.90
28484;DHT22;15704;48.834;8.736;2022-12-10T11:21:06;1.10;99.90
28484;DHT22;15704;48.834;8.736;2022-12-10T11:23:41;1.10;99.90
28484;DHT22;15704;48.834;8.736;2022-12-10T11:32:30;0.90;99.90
28484;DHT22;15704;48.834;8.736;2022-12-10T11:38:05;1.00;99.90
28484;DHT22;15704;48.834;8.736;2022-12-10T11:41:14;0.80;99.90
28484;DHT22;15704;48.834;8.736;2022-12-10T11:46:56;0.70;99.90
28484;DHT22;15704;48.834;8.736;2022-12-10T12:00:42;0.50;99.90
28484;DHT22;15704;48.834;8.736;2022-12-10T12:03:37;0.50;99.90
28484;DHT22;15704;48.834;8.736;2022-12-10T12:19:42;0.80;99.90
28484;DHT22;15704;48.834;8.736;2022-12-10T12:22:23;0.80;99.90
28484;DHT22;15704;48.834;8.736;2022-12-10T12:27:45;0.70;99.90
28484;DHT22;15704;48.834;8.736;2022-12-10T12:30:16;0.80;99.90
28484;DHT22;15704;48.834;8.736;2022-12-10T12:36:00;0.60;99.90
28484;DHT22;15704;48.834;8.736;2022-12-10T12:41:02;0.70;99.90
28484;DHT22;15704;48.834;8.736;2022-12-10T12:46:08;0.80;99.90
28484;DHT22;15704;48.834;8.736;2022-12-10T12:48:59;0.90;99.90
28484;DHT22;15704;48.834;8.736;2022-12-10T12:51:33;0.90;99.90
28484;DHT22;15704;48.834;8.736;2022-12-10T12:54:02;0.80;99.90
28484;DHT22;15704;48.834;8.736;2022-12-10T13:04:41;0.70;99.90
28484;DHT22;15704;48.834;8.736;2022-12-10T13:09:47;0.60;99.90
28484;DHT22;15704;48.834;8.736;2022-12-10T13:17:33;0.50;99.90
28484;DHT22;15704;48.834;8.736;2022-12-10T13:34:05;0.40;99.90
28484;DHT22;15704;48.834;8.736;2022-12-10T13:36:37;0.40;99.90
28484;DHT22;15704;48.834;8.736;2022-12-10T13:39:33;0.50;99.90
28484;DHT22;15704;48.834;8.736;2022-12-10T13:50:18;0.60;99.90
28484;DHT22;15704;48.834;8.736;2022-12-10T13:55:38;0.30;99.90
28484;DHT22;15704;48.834;8.736;2022-12-10T14:00:58;0.30;99.90
28484;DHT22;15704;48.834;8.736;2022-12-10T14:04:01;0.30;99.90
28484;DHT22;15704;48.834;8.736;2022-12-10T14:06:37;0.40;99.90
28484;DHT22;15704;48.834;8.736;2022-12-10T14:09:17;0.50;99.90
28484;DHT22;15704;48.834;8.736;2022-12-10T14:11:53;0.30;99.90
28484;DHT22;15704;48.834;8.736;2022-12-10T14:14:38;0.40;99.90
28484;DHT22;15704;48.834;8.736;2022-12-10T14:17:15;0.50;99.90
28484;DHT22;15704;48.834;8.736;2022-12-10T14:19:46;0.50;99.90
28484;DHT22;15704;48.834;8.736;2022-12-10T14:22:18;0.50;99.90
28484;DHT22;15704;48.834;8.736;2022-12-10T14:24:47;0.40;99.90
28484;DHT22;15704;48.834;8.736;2022-12-10T14:27:18;0.30;99.90
28484;DHT22;15704;48.834;8.736;2022-12-10T14:29:48;0.40;99.90
28484;DHT22;15704;48.834;8.736;2022-12-10T14:32:18;0.30;99.90
28484;DHT22;15704;48.834;8.736;2022-12-10T14:34:52;0.30;99.90
28484;DHT22;15704;48.834;8.736;2022-12-10T14:37:24;0.10;99.90
28484;DHT22;15704;48.834;8.736;2022-12-10T14:39:52;0.20;99.90
28484;DHT22;15704;48.834;8.736;2022-12-10T14:42:19;0.20;99.90
28484;DHT22;15704;48.834;8.736;2022-12-10T14:44:56;0.20;99.90
28484;DHT22;15704;48.834;8.736;2022-12-10T14:47:23;0.20;99.90
28484;DHT22;15704;48.834;8.736;2022-12-10T14:49:53;0.20;99.90
28484;DHT22;15704;48.834;8.736;2022-12-10T14:52:33;0.10;99.90
28484;DHT22;15704;48.834;8.736;2022-12-10T14:55:05;0.00;99.90
28484;DHT22;15704;48.834;8.736;2022-12-10T14:57:35;0.00;99.90
28484;DHT22;15704;48.834;8.736;2022-12-10T15:02:41;-0.10;99.90
28484;DHT22;15704;48.834;8.736;2022-12-10T15:05:12;0.00;99.90
28484;DHT22;15704;48.834;8.736;2022-12-10T15:07:39;0.00;99.90
28484;DHT22;15704;48.834;8.736;2022-12-10T15:10:13;-0.10;99.90
28484;DHT22;15704;48.834;8.736;2022-12-10T15:12:45;-0.10;99.90
28484;DHT22;15704;48.834;8.736;2022-12-10T15:15:31;-0.10;99.90
28484;DHT22;15704;48.834;8.736;2022-12-10T15:33:53;-0.10;99.90
28484;DHT22;15704;48.834;8.736;2022-12-10T15:41:54;-0.10;99.90
28484;DHT22;15704;48.834;8.736;2022-12-10T15:49:36;0.00;99.90
28484;DHT22;15704;48.834;8.736;2022-12-10T15:52:03;-0.10;99.90
28484;DHT22;15704;48.834;8.736;2022-12-10T15:54:36;-0.30;99.90
28484;DHT22;15704;48.834;8.736;2022-12-10T15:57:16;-0.20;99.90
28484;DHT22;15704;48.834;8.736;2022-12-10T15:59:44;-0.20;99.90
28484;DHT22;15704;48.834;8.736;2022-12-10T16:04:53;-0.10;99.90
28484;DHT22;15704;48.834;8.736;2022-12-10T16:07:20;-0.20;99.90
28484;DHT22;15704;48.834;8.736;2022-12-10T16:09:47;-0.20;99.90
28484;DHT22;15704;48.834;8.736;2022-12-10T16:12:14;-0.20;99.90
28484;DHT22;15704;48.834;8.736;2022-12-10T16:14:51;-0.20;99.90
28484;DHT22;15704;48.834;8.736;2022-12-10T16:17:19;-0.30;99.90
28484;DHT22;15704;48.834;8.736;2022-12-10T16:19:46;-0.20;99.90
28484;DHT22;15704;48.834;8.736;2022-12-10T16:22:12;-0.30;99.90
28484;DHT22;15704;48.834;8.736;2022-12-10T16:24:39;-0.30;99.90
28484;DHT22;15704;48.834;8.736;2022-12-10T16:27:14;-0.40;99.90
28484;DHT22;15704;48.834;8.736;2022-12-10T16:29:42;-0.30;99.90
28484;DHT22;15704;48.834;8.736;2022-12-10T16:32:10;-0.30;99.90
28484;DHT22;15704;48.834;8.736;2022-12-10T16:34:37;-0.40;99.90
28484;DHT22;15704;48.834;8.736;2022-12-10T16:37:05;-0.30;99.90
28484;DHT22;15704;48.834;8.736;2022-12-10T16:39:32;-0.40;99.90
28484;DHT22;15704;48.834;8.736;2022-12-10T16:42:00;-0.40;99.90
28484;DHT22;15704;48.834;8.736;2022-12-10T16:44:26;-0.30;99.90
28484;DHT22;15704;48.834;8.736;2022-12-10T16:46:53;-0.30;99.90
28484;DHT22;15704;48.834;8.736;2022-12-10T16:49:20;-0.30;99.90
28484;DHT22;15704;48.834;8.736;2022-12-10T16:51:46;-0.20;99.90
28484;DHT22;15704;48.834;8.736;2022-12-10T16:54:13;-0.20;99.90
28484;DHT22;15704;48.834;8.736;2022-12-10T16:56:40;-0.20;99.90
28484;DHT22;15704;48.834;8.736;2022-12-10T16:59:08;-0.30;99.90
28484;DHT22;15704;48.834;8.736;2022-12-10T17:01:36;-0.30;99.90
28484;DHT22;15704;48.834;8.736;2022-12-10T17:04:03;-0.40;99.90
28484;DHT22;15704;48.834;8.736;2022-12-10T17:06:30;-0.30;99.90
28484;DHT22;15704;48.834;8.736;2022-12-10T17:08:57;-0.30;99.90
28484;DHT22;15704;48.834;8.736;2022-12-10T17:11:26;-0.30;99.90
28484;DHT22;15704;48.834;8.736;2022-12-10T17:16:48;-0.20;99.90
28484;DHT22;15704;48.834;8.736;2022-12-10T17:19:16;-0.20;99.90
28484;DHT22;15704;48.834;8.736;2022-12-10T17:21:43;-0.10;99.90
28484;DHT22;15704;48.834;8.736;2022-12-10T17:24:09;-0.20;99.90
28484;DHT22;15704;48.834;8.736;2022-12-10T17:26:39;-0.20;99.90
28484;DHT22;15704;48.834;8.736;2022-12-10T17:29:23;-0.20;99.90
28484;DHT22;15704;48.834;8.736;2022-12-10T17:31:50;-0.20;99.90
28484;DHT22;15704;48.834;8.736;2022-12-10T17:34:17;-0.40;99.90
28484;DHT22;15704;48.834;8.736;2022-12-10T17:36:44;-0.30;99.90
28484;DHT22;15704;48.834;8.736;2022-12-10T17:39:13;-0.30;99.90
28484;DHT22;15704;48.834;8.736;2022-12-10T17:41:48;-0.40;99.90
28484;DHT22;15704;48.834;8.736;2022-12-10T17:44:14;-0.40;99.90
28484;DHT22;15704;48.834;8.736;2022-12-10T17:46:41;-0.30;99.90
28484;DHT22;15704;48.834;8.736;2022-12-10T17:49:11;-0.30;99.90
28484;DHT22;15704;48.834;8.736;2022-12-10T17:51:39;-0.20;99.90
28484;DHT22;15704;48.834;8.736;2022-12-10T17:54:05;-0.30;99.90
28484;DHT22;15704;48.834;8.736;2022-12-10T17:56:32;-0.20;99.90
28484;DHT22;15704;48.834;8.736;2022-12-10T17:58:59;-0.20;99.90
28484;DHT22;15704;48.834;8.736;2022-12-10T18:01:26;-0.30;99.90
28484;DHT22;15704;48.834;8.736;2022-12-10T18:03:54;-0.30;99.90
28484;DHT22;15704;48.834;8.736;2022-12-10T18:06:29;-0.30;99.90
28484;DHT22;15704;48.834;8.736;2022-12-10T18:08:58;-0.40;99.90
28484;DHT22;15704;48.834;8.736;2022-12-10T18:11:32;-0.30;99.90
28484;DHT22;15704;48.834;8.736;2022-12-10T18:13:59;-0.30;99.90
28484;DHT22;15704;48.834;8.736;2022-12-10T18:16:29;-0.30;99.90
28484;DHT22;15704;48.834;8.736;2022-12-10T18:18:59;-0.30;99.90
28484;DHT22;15704;48.834;8.736;2022-12-10T18:21:26;-0.30;99.90
28484;DHT22;15704;48.834;8.736;2022-12-10T18:23:53;-0.30;99.90
28484;DHT22;15704;48.834;8.736;2022-12-10T18:26:22;-0.30;99.90
28484;DHT22;15704;48.834;8.736;2022-12-10T18:28:55;-0.30;99.90
28484;DHT22;15704;48.834;8.736;2022-12-10T18:31:28;-0.30;99.90
28484;DHT22;15704;48.834;8.736;2022-12-10T18:34:04;-0.30;99.90
28484;DHT22;15704;48.834;8.736;2022-12-10T18:36:34;-0.40;99.90
28484;DHT22;15704;48.834;8.736;2022-12-10T18:39:10;-0.30;99.90
28484;DHT22;15704;48.834;8.736;2022-12-10T18:41:38;-0.40;99.90